LMML Airport Information

Runway Information
Runway 05 Length 7799 ft width 148 ft
Elevation 297 ft Threshold 0 ft Heading 56
Runway 23 Length 7799 ft Width 148 ft
Elevation 247 ft Threshold 0 ft Heading 236
Runway 13 Length 11627 ft width 197 ft
Elevation 256 ft Threshold 0 ft Heading 135
Runway 31 Length 11627 ft Width 197 ft
Elevation 230 ft Threshold 620 ft Heading 315
Airport Frequencies
Type APP Name APP Frequency 128.15 MHZ
Type Distance R Name Frequency 130.975 MHZ
Type Ground Name Ground Frequency 121.6 MHZ
Type Leaving Name Frequency 123.625 MHZ
Type Runway Name Runway Frequency 138.1 MHZ
Type Volmet Name Frequency 126.8 MHZ
Type Weather Name WX Frequency 127.4 MHZ
Airport Navaids
Type DME Name Malta Frequency 110500 KHZ
Type DME Name Luqa Frequency 109700 KHZ
Type NDB Name Luqa Frequency 416 KHZ
Type NDB Name Malta Frequency 395 KHZ
Airport Weather Information & NOTAM
ADDS - METARS form results

(2012 UTC 23 February 2019)
Data provider http://aviationweather.gov/metar/data/
 
METAR text: LMML 232005Z 04024G35KT 2500 R31/0750VP2000N RA SCT008 BKN014CB 06/05 Q1008 RETS BECMG 5000
Conditions at: LMML (LUQA/MALTA , MT) observed 2005 UTC 23 February 2019
Temperature: 6.0°C (43°F)
Dewpoint: 5.0°C (41°F) [RH = 93%]
Pressure (altimeter): 29.76 inches Hg (1008.0 mb)
Winds: from the NE (40 degrees) at 28 MPH (24 knots; 12.3 m/s)
gusting to 40 MPH (35 knots; 18.0 m/s)
Visibility: 1.55 miles (2.49 km)
Ceiling: 1400 feet AGL
Clouds: scattered clouds at 800 feet AGL
broken clouds at 1400 feet AGL
Weather: RA  (moderate rain)

METAR text: LMML 231945Z 05026KT 2500 +TSRA SCT008 BKN014CB 06/05 Q1008 TEMPO 1500 BKN008
Conditions at: LMML (LUQA/MALTA , MT) observed 1945 UTC 23 February 2019
Temperature: 6.0°C (43°F)
Dewpoint: 5.0°C (41°F) [RH = 93%]
Pressure (altimeter): 29.76 inches Hg (1008.0 mb)
Winds: from the NE (50 degrees) at 30 MPH (26 knots; 13.4 m/s)
Visibility: 1.55 miles (2.49 km)
Ceiling: 1400 feet AGL
Clouds: scattered clouds at 800 feet AGL
broken clouds at 1400 feet AGL
Weather: +TSRA  (heavy rain associated with thunderstorm(s))

METAR text: LMML 231936Z 05026G37KT 3000 TSRA SCT008 SCT014CB BKN049 06/05 Q1008 TEMPO 1500 BKN008 BKN014CB
Conditions at: LMML (LUQA/MALTA , MT) observed 1936 UTC 23 February 2019
Temperature: 6.0°C (43°F)
Dewpoint: 5.0°C (41°F) [RH = 93%]
Pressure (altimeter): 29.76 inches Hg (1008.0 mb)
Winds: from the NE (50 degrees) at 30 MPH (26 knots; 13.4 m/s)
gusting to 43 MPH (37 knots; 19.0 m/s)
Visibility: 1.86 miles (2.99 km)
Ceiling: 4900 feet AGL
Clouds: scattered clouds at 800 feet AGL
scattered clouds at 1400 feet AGL
broken clouds at 4900 feet AGL
Weather: TSRA  (rain associated with thunderstorm(s))

METAR text: LMML 231915Z 04019KT 4000 RA SCT008 SCT014CB BKN049 05/05 Q1009 RETS TEMPO 3000 BKN008
Conditions at: LMML (LUQA/MALTA , MT) observed 1915 UTC 23 February 2019
Temperature: 5.0°C (41°F)
Dewpoint: 5.0°C (41°F) [RH = 100%]
Pressure (altimeter): 29.79 inches Hg (1009.0 mb)
Winds: from the NE (40 degrees) at 22 MPH (19 knots; 9.8 m/s)
Visibility: 2.49 miles (4.01 km)
Ceiling: 4900 feet AGL
Clouds: scattered clouds at 800 feet AGL
scattered clouds at 1400 feet AGL
broken clouds at 4900 feet AGL
Weather: RA  (moderate rain)

Forecast for: LMML (LUQA/MALTA , MT)
Text: TAF LMML 231700Z 2318/2418 36022G32KT 8000 SCT009 OVC020
Forecast period: 1800 to 1900 UTC 23 February 2019
Forecast type: FROM: standard forecast or significant change
Winds: from the N (360 degrees) at 25 MPH (22 knots; 11.3 m/s)
gusting to 37 MPH (32 knots; 16.5 m/s)
Visibility: 5 miles (8 km)
Ceiling: 2000 feet AGL
Clouds: scattered clouds at 900 feet AGL
overcast cloud deck at 2000 feet AGL
Weather: no significant weather forecast for this period
Text: TEMPO 2318/2418 4000 RA SHRA SHRAGS BKN009 SCT018TCU OVC020
Forecast period: 1800 UTC 23 February 2019 to 1800 UTC 24 February 2019
Forecast type: TEMPORARY: The following changes expected for less than half the time period
Visibility: 2.49 miles (4.01 km)
Ceiling: 900 feet AGL
Clouds: broken clouds at 900 feet AGL
scattered clouds at 1800 feet AGL
overcast cloud deck at 2000 feet AGL
Weather: RA SHRA SHRA SHGS  (moderate rain, rain showers, rain showers, small hail or graupel showers)
Text: PROB40
Forecast period: 1800 UTC 23 February 2019 to 1800 UTC 24 February 2019
Forecast type: TEMPORARY: The following changes expected for less than half the time period
Winds: variable direction winds at 40 MPH (35 knots; 18.0 m/s)
gusting to 52 MPH (45 knots; 23.1 m/s)
Visibility: 1.86 miles (2.99 km)
Ceiling: 900 feet AGL
Clouds: broken clouds at 900 feet AGL
broken clouds at 1800 feet AGL
Weather: TSRA TSRA TSGS  (rain associated with thunderstorm(s), rain associated with thunderstorm(s), small hail or graupel associated with thunderstorm(s))
Text: TEMPO 2318/2418 VRB35G45KT 3000 TSRA TSRAGS BKN009 BKN018CB
Forecast period: 1900 UTC 23 February 2019 to 0100 UTC 24 February 2019
Forecast type: BECOMING: Conditions expected to become as follows by 2200 UTC 23 February 2019
Winds: from the NE (40 degrees) at 29 MPH (25 knots; 12.9 m/s)
gusting to 40 MPH (35 knots; 18.0 m/s)
Visibility: 5 miles (8 km)
Ceiling: 2000 feet AGL
Clouds: scattered clouds at 900 feet AGL
overcast cloud deck at 2000 feet AGL
Weather: no significant weather forecast for this period
Text: BECMG 2319/2322 04025G35KT
Forecast period: 0100 to 1800 UTC 24 February 2019
Forecast type: BECOMING: Conditions expected to become as follows by 0400 UTC 24 February 2019
Winds: from the NE (50 degrees) at 40 MPH (35 knots; 18.0 m/s)
gusting to 52 MPH (45 knots; 23.1 m/s)
Visibility: 5 miles (8 km)
Ceiling: 2000 feet AGL
Clouds: scattered clouds at 900 feet AGL
overcast cloud deck at 2000 feet AGL
Weather: no significant weather forecast for this period